Time;durP1;ratioP1;P1;durP2;ratioP2;P2;SDS_P1;SDS_P2;PMS_P1;PMS_P2;Temp;Humidity;BMP_temperature;BMP_pressure;BME280_temperature;BME280_humidity;BME280_pressure;Samples;Min_cycle;Max_cycle;Signal;HPM_P1;HPM_P2
2022/10/24 00:01:16;;;;;;;16.67;4.93;;;;;;;13.77;100.00;99158.91;4936878;29;20103;-96
2022/10/24 00:03:43;;;;;;;18.27;5.43;;;;;;;13.50;100.00;99120.59;4936429;29;20442;-96
2022/10/24 00:06:12;;;;;;;19.63;5.63;;;;;;;13.54;100.00;99135.19;4939754;29;20051;-95
2022/10/24 00:08:40;;;;;;;16.67;5.07;;;;;;;13.61;100.00;99135.56;4940500;29;20060;-95
2022/10/24 00:11:10;;;;;;;28.02;7.38;;;;;;;13.70;100.00;99134.03;4940058;29;20375;-95
2022/10/24 00:13:38;;;;;;;24.55;5.72;;;;;;;13.52;100.00;99092.41;4940324;29;20111;-96
2022/10/24 00:16:05;;;;;;;11.18;3.75;;;;;;;13.58;100.00;99105.09;4940504;29;20130;-96
2022/10/24 00:18:32;;;;;;;25.35;6.15;;;;;;;13.50;100.00;99110.09;4940468;29;20059;-95
2022/10/24 00:20:59;;;;;;;22.27;5.55;;;;;;;13.30;100.00;99108.94;4940604;29;20103;-96
2022/10/24 00:23:25;;;;;;;26.08;5.55;;;;;;;13.54;100.00;99119.41;4941088;29;20063;-95
2022/10/24 00:25:52;;;;;;;19.50;5.63;;;;;;;13.39;100.00;99120.59;4941111;29;20395;-95
2022/10/24 00:28:19;;;;;;;30.15;6.88;;;;;;;13.40;100.00;99093.31;4941887;29;20111;-95
2022/10/24 00:30:51;;;;;;;13.98;4.53;;;;;;;13.47;100.00;99100.66;4940472;29;20446;-96
2022/10/24 00:33:18;;;;;;;22.40;4.80;;;;;;;13.47;100.00;99100.66;4940011;29;20110;-95
2022/10/24 00:35:45;;;;;;;24.55;5.10;;;;;;;13.49;100.00;99103.13;4939657;29;20059;-95
2022/10/24 00:38:11;;;;;;;25.20;5.25;;;;;;;13.48;100.00;99104.13;4940046;29;20052;-95
2022/10/24 00:40:39;;;;;;;21.02;4.60;;;;;;;13.52;100.00;99089.78;4939600;29;20052;-95
2022/10/24 00:43:25;;;;;;;11.82;3.28;;;;;;;13.74;100.00;99109.16;4939736;29;20139;-96
2022/10/24 00:45:54;;;;;;;19.38;4.43;;;;;;;13.54;100.00;99081.78;4939490;29;20055;-94
2022/10/24 00:48:38;;;;;;;10.35;3.53;;;;;;;13.54;100.00;99097.53;4939700;29;20055;-94
2022/10/24 00:51:09;;;;;;;8.25;3.00;;;;;;;13.55;100.00;99078.19;4939177;29;20131;-93
2022/10/24 00:53:43;;;;;;;9.07;2.80;;;;;;;13.73;100.00;99108.34;4939471;29;20058;-93
2022/10/24 00:56:13;;;;;;;10.38;3.38;;;;;;;13.71;100.00;99107.63;4939456;29;20442;-94
2022/10/24 00:58:43;;;;;;;8.23;2.88;;;;;;;13.81;100.00;99105.09;4939031;29;20055;-94
2022/10/24 01:01:11;;;;;;;11.90;2.95;;;;;;;13.65;100.00;99097.56;4939533;29;20436;-94
2022/10/24 01:03:38;;;;;;;25.50;4.90;;;;;;;13.47;100.00;99066.47;4939150;29;20055;-94
2022/10/24 01:06:17;;;;;;;15.02;3.45;;;;;;;13.67;100.00;99087.78;4938851;29;20099;-92
2022/10/24 01:09:02;;;;;;;9.65;2.42;;;;;;;13.74;100.00;99091.59;4939144;29;20110;-94
2022/10/24 01:11:55;;;;;;;7.80;2.20;;;;;;;13.64;100.00;99065.16;4941678;29;20118;-93
2022/10/24 01:14:56;;;;;;;9.07;2.65;;;;;;;13.79;100.00;99085.97;4938709;28;20066;-94
2022/10/24 01:17:51;;;;;;;7.03;1.90;;;;;;;13.66;100.00;99059.78;4957784;29;20055;-93
2022/10/24 01:20:42;;;;;;;22.30;3.75;;;;;;;13.59;100.00;99051.53;4939291;29;20491;-94
2022/10/24 01:23:22;;;;;;;7.80;2.38;;;;;;;13.74;100.00;99078.47;4938698;29;20107;-94
2022/10/24 01:25:58;;;;;;;17.63;4.00;;;;;;;13.73;100.00;99073.31;4938979;29;20048;-93
2022/10/24 01:28:57;;;;;;;9.30;2.90;;;;;;;13.83;100.00;99064.59;4938675;29;20055;-93
2022/10/24 01:31:34;;;;;;;9.00;2.33;;;;;;;13.75;100.00;99045.94;4923141;29;20044;-94
2022/10/24 01:34:08;;;;;;;9.50;2.75;;;;;;;13.80;100.00;99056.94;4960621;28;20051;-93
2022/10/24 01:36:46;;;;;;;11.63;2.90;;;;;;;13.52;100.00;99028.47;4957959;29;20102;-94
2022/10/24 01:39:18;;;;;;;10.23;2.60;;;;;;;13.62;100.00;99034.69;4961614;28;20051;-94
2022/10/24 01:41:46;;;;;;;8.30;1.85;;;;;;;13.73;100.00;99033.88;4957811;29;20482;-94
2022/10/24 01:44:23;;;;;;;11.02;2.75;;;;;;;13.77;100.00;99041.38;4973172;28;20063;-94
2022/10/24 01:47:06;;;;;;;10.60;2.85;;;;;;;13.77;100.00;99019.50;4953696;29;20110;-95
2022/10/24 01:49:36;;;;;;;13.75;2.88;;;;;;;13.78;100.00;99008.03;4956211;29;20055;-94
2022/10/24 01:52:09;;;;;;;12.48;2.65;;;;;;;13.67;100.00;99009.72;4957290;29;20047;-94
2022/10/24 01:54:37;;;;;;;10.30;2.47;;;;;;;13.88;100.00;99018.66;4939586;29;20067;-94
2022/10/24 01:57:04;;;;;;;12.93;3.25;;;;;;;13.73;100.00;99012.81;4954093;29;20052;-94
2022/10/24 01:59:31;;;;;;;14.95;3.10;;;;;;;13.87;100.00;99031.00;4969861;28;20111;-94
2022/10/24 02:02:07;;;;;;;10.45;2.65;;;;;;;13.64;100.00;98980.19;4957396;29;20047;-95
2022/10/24 02:04:38;;;;;;;10.25;2.83;;;;;;;13.68;100.00;98992.94;4954883;29;20055;-94
2022/10/24 02:07:08;;;;;;;10.05;2.70;;;;;;;14.03;100.00;99022.72;4937954;29;20051;-95
2022/10/24 02:09:38;;;;;;;9.52;2.28;;;;;;;14.00;100.00;99017.69;4940289;29;20051;-95
2022/10/24 02:12:07;;;;;;;11.95;2.70;;;;;;;14.07;100.00;99021.50;4937958;29;20103;-94
2022/10/24 02:14:38;;;;;;;18.65;3.05;;;;;;;14.08;100.00;99012.66;4951768;29;20047;-94
2022/10/24 02:17:05;;;;;;;19.17;3.25;;;;;;;13.92;100.00;98986.75;4957340;29;20059;-95
2022/10/24 02:19:32;;;;;;;14.02;2.72;;;;;;;13.85;100.00;98965.34;4956426;29;20131;-94
2022/10/24 02:22:14;;;;;;;24.08;3.80;;;;;;;14.03;100.00;98975.34;4956692;29;20047;-95
2022/10/24 02:24:48;;;;;;;14.98;2.88;;;;;;;13.94;100.00;98971.66;4956903;29;20055;-95
2022/10/24 02:27:19;;;;;;;19.25;3.08;;;;;;;13.96;100.00;98966.28;4959338;28;20110;-94
2022/10/24 02:29:52;;;;;;;18.17;2.70;;;;;;;14.17;100.00;98985.59;4956638;29;20086;-94
2022/10/24 02:32:26;;;;;;;33.75;4.60;;;;;;;14.12;100.00;98985.13;4956326;29;20047;-95
2022/10/24 02:34:54;;;;;;;47.80;5.18;;;;;;;14.20;100.00;98980.09;4956287;29;20108;-94
2022/10/24 02:37:23;;;;;;;20.10;3.10;;;;;;;13.98;100.00;98943.31;4956231;29;20047;-94
2022/10/24 02:39:53;;;;;;;31.95;4.35;;;;;;;14.05;100.00;98941.84;4955927;29;20110;-94
2022/10/24 02:42:22;;;;;;;18.33;2.55;;;;;;;14.00;100.00;98947.47;4955972;29;20553;-95
2022/10/24 02:44:49;;;;;;;9.15;2.22;;;;;;;13.96;100.00;98939.97;4971869;28;20130;-94
2022/10/24 02:47:19;;;;;;;8.60;1.88;;;;;;;14.11;100.00;98933.47;4972047;28;20054;-94
2022/10/24 02:49:46;;;;;;;33.63;4.07;;;;;;;14.03;100.00;98943.78;4966247;28;20062;-94
2022/10/24 02:52:14;;;;;;;27.63;3.92;;;;;;;14.00;100.00;98926.44;4955999;29;20055;-94
2022/10/24 02:54:41;;;;;;;20.52;3.75;;;;;;;13.99;100.00;98919.50;4956549;29;20055;-94
2022/10/24 02:57:08;;;;;;;12.38;2.90;;;;;;;14.03;100.00;98925.34;4955948;29;20114;-94
2022/10/24 02:59:34;;;;;;;23.58;3.70;;;;;;;13.94;100.00;98908.53;4955901;29;20114;-94
2022/10/24 03:02:01;;;;;;;32.38;4.20;;;;;;;14.01;100.00;98940.44;4971509;28;20044;-94
2022/10/24 03:04:28;;;;;;;26.75;3.97;;;;;;;13.79;100.00;98921.13;4938294;29;20131;-94
2022/10/24 03:06:55;;;;;;;7.35;1.95;;;;;;;13.99;100.00;98911.63;4941982;29;20064;-93
2022/10/24 03:09:21;;;;;;;33.40;4.05;;;;;;;14.18;100.00;98923.28;4949661;29;20114;-94
2022/10/24 03:11:48;;;;;;;19.17;3.05;;;;;;;14.07;100.00;98915.41;4955417;29;20048;-94
2022/10/24 03:14:15;;;;;;;4.10;1.70;;;;;;;14.19;100.00;98932.84;4955180;29;20051;-94
2022/10/24 03:16:42;;;;;;;10.38;1.98;;;;;;;14.09;100.00;98910.88;4950281;29;20095;-94
2022/10/24 03:19:09;;;;;;;14.30;2.97;;;;;;;14.05;100.00;98899.75;4948996;29;20051;-94
2022/10/24 03:21:35;;;;;;;47.38;5.55;;;;;;;13.96;100.00;98885.53;4955383;29;20048;-93
2022/10/24 03:24:02;;;;;;;15.27;2.78;;;;;;;13.97;100.00;98894.25;4945256;29;20056;-93
2022/10/24 03:26:29;;;;;;;19.33;3.35;;;;;;;13.85;100.00;98890.84;4951400;29;20501;-94
2022/10/24 03:28:56;;;;;;;44.33;5.93;;;;;;;14.07;100.00;98908.34;4954408;29;20059;-93
2022/10/24 03:31:23;;;;;;;13.52;2.70;;;;;;;13.97;100.00;98883.75;4944130;29;20047;-94
2022/10/24 03:33:50;;;;;;;8.90;2.33;;;;;;;14.14;100.00;98899.00;4955322;29;20087;-93
2022/10/24 03:36:17;;;;;;;8.90;2.35;;;;;;;14.05;100.00;98882.16;4954875;29;20106;-93
2022/10/24 03:38:43;;;;;;;4.97;1.98;;;;;;;14.05;100.00;98865.53;4951658;28;20466;-94
2022/10/24 03:41:10;;;;;;;22.58;3.58;;;;;;;14.14;100.00;98900.81;4952624;29;20094;-94
2022/10/24 03:43:37;;;;;;;11.25;2.25;;;;;;;14.08;100.00;98877.59;4956735;29;20055;-94
2022/10/24 03:46:04;;;;;;;7.55;2.10;;;;;;;14.23;100.00;98892.97;4940070;29;20110;-94
2022/10/24 03:48:30;;;;;;;5.60;2.15;;;;;;;14.12;100.00;98869.34;4946533;29;20652;-94
2022/10/24 03:50:57;;;;;;;14.35;3.50;;;;;;;14.06;100.00;98867.22;4955705;29;20062;-93
2022/10/24 03:53:24;;;;;;;27.38;3.83;;;;;;;14.03;100.00;98878.81;4956249;29;20048;-93
2022/10/24 03:55:51;;;;;;;20.73;3.35;;;;;;;13.89;100.00;98833.56;4973758;28;20126;-94
2022/10/24 03:58:17;;;;;;;11.40;2.97;;;;;;;14.17;100.00;98885.59;4958467;29;20063;-94
2022/10/24 04:00:44;;;;;;;19.05;3.40;;;;;;;14.13;100.00;98878.91;4958613;29;20489;-93
2022/10/24 04:03:11;;;;;;;18.92;3.10;;;;;;;13.98;100.00;98865.19;4958736;29;20070;-93
2022/10/24 04:05:38;;;;;;;18.30;3.33;;;;;;;14.00;100.00;98858.00;4958609;28;20063;-94
2022/10/24 04:08:05;;;;;;;9.07;2.53;;;;;;;14.03;100.00;98846.41;4957579;29;20051;-93
2022/10/24 04:10:32;;;;;;;6.80;2.25;;;;;;;14.26;100.00;98888.44;4958253;29;20445;-94
2022/10/24 04:12:59;;;;;;;5.95;2.17;;;;;;;13.96;100.00;98821.56;4953861;29;20047;-93
2022/10/24 04:15:26;;;;;;;6.70;1.95;;;;;;;14.12;100.00;98850.91;4957971;29;20482;-94
2022/10/24 04:17:53;;;;;;;5.65;1.90;;;;;;;14.19;100.00;98843.38;4956739;29;20043;-93
2022/10/24 04:20:21;;;;;;;24.25;3.75;;;;;;;14.16;100.00;98847.06;4957393;29;20055;-93
2022/10/24 04:22:48;;;;;;;11.57;2.85;;;;;;;14.32;100.00;98862.41;4957469;28;20106;-93
2022/10/24 04:25:15;;;;;;;9.57;2.25;;;;;;;13.99;100.00;98822.16;4957049;29;20055;-93
2022/10/24 04:27:42;;;;;;;21.83;3.53;;;;;;;14.09;100.00;98837.19;4956371;29;20398;-93
2022/10/24 04:30:11;;;;;;;11.50;2.70;;;;;;;14.11;100.00;98827.34;4956758;29;20048;-93
2022/10/24 04:32:42;;;;;;;4.43;1.70;;;;;;;14.18;100.00;98833.78;4943836;29;20134;-93
2022/10/24 04:35:10;;;;;;;6.43;2.20;;;;;;;14.36;100.00;98861.22;4938086;29;20055;-93
2022/10/24 04:37:37;;;;;;;12.00;2.50;;;;;;;14.36;100.00;98866.50;4946720;29;20052;-93
2022/10/24 04:40:04;;;;;;;14.25;3.17;;;;;;;14.09;100.00;98824.03;4955818;29;20062;-93
2022/10/24 04:42:31;;;;;;;14.70;2.78;;;;;;;14.34;100.00;98872.84;4953761;29;20047;-93
2022/10/24 04:44:58;;;;;;;10.30;2.67;;;;;;;14.08;100.00;98827.59;4965238;28;20114;-93
2022/10/24 04:47:25;;;;;;;17.83;3.15;;;;;;;14.05;100.00;98844.50;4943628;29;20051;-94
2022/10/24 04:49:51;;;;;;;9.38;2.15;;;;;;;14.13;100.00;98836.81;4950364;28;20098;-93
2022/10/24 04:52:18;;;;;;;10.63;2.72;;;;;;;14.14;100.00;98843.72;4956943;28;20080;-92
2022/10/24 04:54:45;;;;;;;4.10;1.70;;;;;;;14.31;100.00;98844.97;4957113;29;20501;-92
2022/10/24 04:57:12;;;;;;;6.07;1.75;;;;;;;14.10;100.00;98807.28;4956688;29;20063;-93
2022/10/24 04:59:38;;;;;;;16.00;3.08;;;;;;;14.38;100.00;98856.66;4955841;29;20051;-92
2022/10/24 05:02:05;;;;;;;6.88;2.08;;;;;;;14.25;100.00;98829.69;4956408;29;20047;-92
2022/10/24 05:04:32;;;;;;;16.15;2.90;;;;;;;14.19;100.00;98822.31;4956835;29;20541;-93
2022/10/24 05:06:58;;;;;;;20.52;2.90;;;;;;;14.09;100.00;98813.50;4956093;29;20051;-92
2022/10/24 05:09:25;;;;;;;6.53;2.08;;;;;;;14.25;100.00;98827.03;4953983;29;20098;-93
2022/10/24 05:11:56;;;;;;;8.23;2.53;;;;;;;14.21;100.00;98813.31;4955898;29;20051;-93
2022/10/24 05:14:23;;;;;;;5.30;1.92;;;;;;;14.31;100.00;98825.72;4941874;29;20078;-93
2022/10/24 05:16:50;;;;;;;13.52;2.83;;;;;;;14.16;100.00;98812.03;4947376;29;20102;-93
2022/10/24 05:19:18;;;;;;;4.30;1.63;;;;;;;14.45;100.00;98849.09;4954954;29;20051;-92
2022/10/24 05:21:45;;;;;;;6.85;2.60;;;;;;;14.29;100.00;98823.22;4955810;29;20063;-93
2022/10/24 05:24:12;;;;;;;28.40;4.03;;;;;;;14.39;100.00;98845.16;4956829;29;20469;-93
2022/10/24 05:26:39;;;;;;;8.00;2.58;;;;;;;14.19;100.00;98823.13;4957024;29;20043;-93
2022/10/24 05:29:06;;;;;;;9.73;3.10;;;;;;;14.02;100.00;98794.75;4955582;29;20055;-93
2022/10/24 05:31:33;;;;;;;10.70;3.35;;;;;;;14.18;100.00;98826.75;4956418;29;20545;-93
2022/10/24 05:33:59;;;;;;;10.15;2.72;;;;;;;14.11;100.00;98827.34;4955682;29;20133;-93
2022/10/24 05:36:26;;;;;;;20.88;4.10;;;;;;;14.27;100.00;98848.84;4955635;29;20051;-94
2022/10/24 05:38:53;;;;;;;7.53;2.40;;;;;;;14.05;100.00;98805.03;4955332;29;20118;-92
2022/10/24 05:41:20;;;;;;;8.00;2.60;;;;;;;14.29;100.00;98832.88;4956139;29;20054;-93
2022/10/24 05:43:46;;;;;;;11.55;2.97;;;;;;;14.04;100.00;98784.91;4955837;29;20098;-93
2022/10/24 05:46:13;;;;;;;7.93;2.50;;;;;;;14.27;100.00;98825.16;4956050;29;20118;-93
2022/10/24 05:48:40;;;;;;;8.35;2.55;;;;;;;14.18;100.00;98831.16;4954649;29;20055;-93
2022/10/24 05:51:06;;;;;;;7.07;2.30;;;;;;;13.96;100.00;98811.06;4956253;29;20125;-94
2022/10/24 05:53:33;;;;;;;7.70;2.60;;;;;;;14.19;100.00;98817.03;4954866;29;20055;-93
2022/10/24 05:56:00;;;;;;;9.35;2.58;;;;;;;13.96;100.00;98796.09;4957921;28;20078;-92
2022/10/24 05:58:27;;;;;;;7.35;2.55;;;;;;;14.13;100.00;98799.13;4954793;29;20059;-92
2022/10/24 06:00:53;;;;;;;8.25;2.58;;;;;;;14.11;100.00;98793.16;4955352;28;20051;-92
2022/10/24 06:03:21;;;;;;;7.45;2.72;;;;;;;14.27;100.00;98803.22;4952828;29;20382;-92
2022/10/24 06:05:48;;;;;;;6.35;2.55;;;;;;;14.15;100.00;98798.03;4956334;28;20051;-92
2022/10/24 06:08:16;;;;;;;7.65;2.95;;;;;;;14.09;100.00;98802.97;4954118;29;20110;-91
2022/10/24 06:10:48;;;;;;;7.63;2.67;;;;;;;13.78;100.00;98800.25;4954987;29;20109;-92
2022/10/24 06:13:15;;;;;;;6.93;2.35;;;;;;;13.85;100.00;98811.94;4968945;28;20047;-92
2022/10/24 06:15:43;;;;;;;9.18;2.65;;;;;;;13.83;100.00;98809.44;4955410;29;20110;-91
2022/10/24 06:18:24;;;;;;;6.93;2.80;;;;;;;13.77;100.00;98782.78;4959295;29;20041;-90
2022/10/24 06:21:07;;;;;;;10.63;3.10;;;;;;;14.12;100.00;98808.81;4961229;29;20051;-92
2022/10/24 06:23:48;;;;;;;6.70;2.35;;;;;;;14.09;100.00;98797.72;4960733;29;20023;-91
2022/10/24 06:26:29;;;;;;;6.32;2.53;;;;;;;13.86;100.00;98806.56;4975604;28;20075;-89
2022/10/24 06:29:10;;;;;;;5.35;2.08;;;;;;;13.83;100.00;98813.88;4972542;29;20110;-90
2022/10/24 06:31:51;;;;;;;12.73;2.92;;;;;;;13.82;100.00;98809.53;4980014;28;20071;-91
2022/10/24 06:34:34;;;;;;;17.45;3.70;;;;;;;13.78;100.00;98798.44;4973535;29;20057;-91
2022/10/24 06:37:15;;;;;;;17.70;3.22;;;;;;;13.77;100.00;98798.56;4974651;28;20051;-90
2022/10/24 06:39:57;;;;;;;9.82;2.75;;;;;;;13.82;100.00;98806.91;4973062;29;20050;-92
2022/10/24 06:42:38;;;;;;;7.25;2.83;;;;;;;13.68;100.00;98779.94;4945603;29;20054;-90
2022/10/24 06:45:20;;;;;;;19.92;3.67;;;;;;;13.80;100.00;98819.38;4961584;29;20039;-91
2022/10/24 06:48:02;;;;;;;10.83;3.53;;;;;;;13.52;100.00;98797.09;4972541;28;20027;-91
2022/10/24 06:50:44;;;;;;;34.47;4.45;;;;;;;13.55;100.00;98820.53;4961207;29;20043;-91
2022/10/24 06:53:25;;;;;;;40.78;4.55;;;;;;;13.66;100.00;98831.00;4944569;29;20027;-91
2022/10/24 06:56:07;;;;;;;13.55;3.22;;;;;;;13.78;100.00;98826.56;4971834;28;20041;-89
2022/10/24 06:58:48;;;;;;;26.60;3.60;;;;;;;13.84;100.00;98834.75;4954813;29;20043;-90
2022/10/24 07:01:30;;;;;;;32.00;4.20;;;;;;;13.65;100.00;98810.91;4969952;29;20051;-91
2022/10/24 07:04:11;;;;;;;38.10;4.47;;;;;;;13.62;100.00;98819.06;4959344;29;20039;-90
2022/10/24 07:06:53;;;;;;;42.90;4.05;;;;;;;13.57;100.00;98815.97;4973401;29;20063;-92
2022/10/24 07:09:34;;;;;;;21.48;2.90;;;;;;;13.75;100.00;98826.78;4976179;28;20039;-89
2022/10/24 07:12:17;;;;;;;12.00;2.65;;;;;;;13.79;100.00;98836.09;4962438;29;20543;-91
2022/10/24 07:14:57;;;;;;;4.57;1.50;;;;;;;13.77;100.00;98814.34;4966956;28;20074;-91
2022/10/24 07:17:40;;;;;;;6.20;2.00;;;;;;;13.60;100.00;98802.59;4975909;28;20077;-92
2022/10/24 07:20:22;;;;;;;14.33;2.67;;;;;;;13.75;100.00;98824.16;4966561;29;20074;-89
2022/10/24 07:23:03;;;;;;;21.55;3.38;;;;;;;13.69;100.00;98830.75;4946761;29;20103;-90
2022/10/24 07:25:44;;;;;;;5.68;2.00;;;;;;;13.74;100.00;98828.59;4954857;29;20115;-91
2022/10/24 07:28:24;;;;;;;11.00;2.63;;;;;;;13.79;100.00;98831.69;4956820;28;20047;-91
2022/10/24 07:31:07;;;;;;;46.72;4.82;;;;;;;13.82;100.00;98833.22;4970683;29;20091;-88
2022/10/24 07:33:48;;;;;;;29.25;3.83;;;;;;;13.59;100.00;98814.88;4967320;29;20028;-89
2022/10/24 07:36:29;;;;;;;26.17;3.88;;;;;;;13.48;100.00;98807.03;4973867;28;20051;-89
2022/10/24 07:39:11;;;;;;;25.48;3.88;;;;;;;13.45;100.00;98823.88;4973101;29;20056;-89
2022/10/24 07:41:51;;;;;;;64.45;5.82;;;;;;;13.40;100.00;98840.97;4970879;29;20043;-89
2022/10/24 07:44:32;;;;;;;91.03;10.15;;;;;;;13.02;100.00;98816.72;4972932;28;20049;-89
2022/10/24 07:47:14;;;;;;;24.45;3.55;;;;;;;13.13;100.00;98792.25;4971450;29;20410;-89
2022/10/24 07:49:55;;;;;;;14.50;2.97;;;;;;;13.29;100.00;98790.06;4941117;29;20051;-90
2022/10/24 07:52:37;;;;;;;18.67;3.07;;;;;;;13.63;100.00;98807.56;4943033;29;20052;-90
2022/10/24 07:55:22;;;;;;;11.45;2.85;;;;;;;13.67;100.00;98775.66;4962816;29;20051;-92
2022/10/24 07:58:03;;;;;;;26.85;3.78;;;;;;;13.59;100.00;98762.28;4946073;29;20091;-90
2022/10/24 08:00:46;;;;;;;9.82;2.53;;;;;;;13.25;100.00;98722.09;4963890;29;20048;-92
2022/10/24 08:03:27;;;;;;;6.45;1.60;;;;;;;13.32;100.00;98738.25;4953576;29;20027;-91
2022/10/24 08:06:20;;;;;;;18.75;2.92;;;;;;;13.92;100.00;98828.06;4942897;29;20039;-91
2022/10/24 08:09:02;;;;;;;12.05;2.70;;;;;;;13.38;100.00;98770.13;4959008;29;20048;-92
2022/10/24 08:11:45;;;;;;;5.88;1.88;;;;;;;13.58;100.00;98794.81;4968082;29;20042;-90
2022/10/24 08:14:29;;;;;;;7.85;1.95;;;;;;;13.77;100.00;98803.81;4956610;29;20060;-91
2022/10/24 08:17:11;;;;;;;13.23;2.53;;;;;;;13.97;100.00;98834.59;4955816;29;20040;-91
2022/10/24 08:19:53;;;;;;;8.98;2.55;;;;;;;13.79;100.00;98809.78;4974377;29;20051;-91
2022/10/24 08:22:37;;;;;;;4.18;1.63;;;;;;;13.98;100.00;98825.72;4974868;28;20035;-91
2022/10/24 08:25:18;;;;;;;11.98;2.90;;;;;;;13.22;100.00;98725.81;4962078;29;20039;-91
2022/10/24 08:28:01;;;;;;;14.27;2.93;;;;;;;13.56;100.00;98790.63;4974921;29;20024;-89
2022/10/24 08:30:56;;;;;;;5.00;1.80;;;;;;;14.20;100.00;98853.75;4967039;28;20071;-88
2022/10/24 08:33:45;;;;;;;16.60;3.30;;;;;;;13.57;100.00;98787.03;4973393;29;20098;-91
2022/10/24 08:36:29;;;;;;;7.65;2.38;;;;;;;13.04;100.00;98738.63;4961918;29;20109;-89
2022/10/24 08:39:14;;;;;;;11.90;3.10;;;;;;;13.65;100.00;98853.84;4965290;29;20059;-92
2022/10/24 08:42:07;;;;;;;12.57;2.97;;;;;;;13.57;100.00;98758.94;4948095;29;20044;-91
2022/10/24 08:44:53;;;;;;;11.80;3.28;;;;;;;14.36;100.00;98844.56;4932609;29;20051;-91
2022/10/24 08:48:29;;;;;;;9.48;3.15;;;;;;;13.86;100.00;98763.59;4961127;29;20031;-90
2022/10/24 08:52:10;;;;;;;9.02;2.60;;;;;;;14.05;100.00;98790.06;4960250;29;20114;-92
2022/10/24 08:54:56;;;;;;;12.27;3.53;;;;;;;13.90;100.00;98762.41;4913079;29;20039;-90
2022/10/24 08:57:53;;;;;;;7.93;2.42;;;;;;;14.28;100.00;98831.25;4978299;29;20051;-92
2022/10/24 09:00:44;;;;;;;11.70;3.15;;;;;;;13.54;100.00;98734.69;4951327;29;20055;-90
2022/10/24 09:04:08;;;;;;;8.73;2.97;;;;;;;13.89;100.00;98789.66;4975388;28;20047;-91
2022/10/24 09:07:31;;;;;;;9.55;3.17;;;;;;;14.28;100.00;98847.03;4953522;29;20024;-91
2022/10/24 09:10:46;;;;;;;11.23;3.97;;;;;;;14.35;100.00;98832.38;4976902;29;20054;-92
2022/10/24 09:13:31;;;;;;;9.50;3.17;;;;;;;13.62;100.00;98741.00;4959887;29;20054;-89
2022/10/24 09:16:20;;;;;;;9.70;3.60;;;;;;;14.22;100.00;98829.97;4960218;29;20034;-90
2022/10/24 09:19:29;;;;;;;;;;;;;;;;;;;;;
2022/10/24 09:22:32;;;;;;;11.93;4.32;;;;;;;14.38;100.00;98887.44;4978985;29;20035;-93
2022/10/24 09:25:21;;;;;;;6.70;2.63;;;;;;;13.70;100.00;98827.16;4979222;29;20051;-94
2022/10/24 09:28:24;;;;;;;21.73;5.35;;;;;;;13.83;100.00;98812.06;4979356;29;20043;-91
2022/10/24 09:31:19;;;;;;;15.63;4.63;;;;;;;14.12;100.00;98864.09;4976818;29;20055;-90
2022/10/24 09:34:00;;;;;;;11.43;4.82;;;;;;;13.41;100.00;98767.25;4961945;29;20091;-88
2022/10/24 09:36:49;;;;;;;9.57;4.53;;;;;;;13.99;100.00;98869.53;4975521;28;20111;-94
2022/10/24 09:40:25;;;;;;;9.80;4.00;;;;;;;13.89;100.00;98815.16;4965463;28;20042;-95
2022/10/24 09:55:52;;;;;;;10.95;5.38;;;;;;;14.23;100.00;98903.50;4960075;29;20128;-95
2022/10/24 10:02:45;;;;;;;10.90;4.93;;;;;;;13.08;100.00;98786.50;4921716;29;20057;-95
2022/10/24 10:06:14;;;;;;;18.52;5.13;;;;;;;13.86;100.00;98924.06;4920664;29;20136;-95
2022/10/24 10:09:11;;;;;;;14.35;4.82;;;;;;;13.50;100.00;98880.53;4903828;29;20096;-93
2022/10/24 10:16:39;;;;;;;9.35;4.07;;;;;;;13.96;100.00;98916.28;4902858;29;20056;-95
2022/10/24 10:19:38;;;;;;;10.18;4.68;;;;;;;13.23;100.00;98832.59;4902783;29;20060;-94
2022/10/24 10:23:13;;;;;;;13.02;6.25;;;;;;;13.40;100.00;98854.97;4888611;29;20092;-95
2022/10/24 10:33:53;;;;;;;15.10;6.72;;;;;;;14.08;100.00;98932.88;4940043;29;20052;-94
2022/10/24 10:40:46;;;;;;;12.38;4.82;;;;;;;14.48;100.00;98922.53;4939106;29;20123;-93
2022/10/24 10:43:57;;;;;;;25.30;7.80;;;;;;;14.43;100.00;98922.94;4939492;29;20084;-92
2022/10/24 10:47:11;;;;;;;14.18;6.88;;;;;;;14.36;100.00;98890.19;4940630;29;20043;-94
2022/10/24 10:50:36;;;;;;;14.77;7.30;;;;;;;14.24;100.00;98873.59;4957367;29;20057;-92
2022/10/24 10:54:27;;;;;;;;;;;;;;;;;;;;;
2022/10/24 10:57:48;;;;;;;13.25;7.25;;;;;;;14.05;100.00;98874.25;4971771;28;20066;-94
2022/10/24 11:00:47;;;;;;;12.93;6.82;;;;;;;13.56;100.00;98775.66;4977919;29;20111;-93
2022/10/24 11:03:54;;;;;;;14.65;7.35;;;;;;;13.90;100.00;98856.25;4978173;29;20047;-93
2022/10/24 11:07:12;;;;;;;15.18;9.07;;;;;;;14.43;100.00;98927.38;4978385;29;20039;-96
2022/10/24 11:10:31;;;;;;;14.75;7.88;;;;;;;13.94;100.00;98857.72;4964645;29;20035;-96
2022/10/24 11:13:54;;;;;;;66.60;12.38;;;;;;;14.07;100.00;98858.34;4977149;28;20031;-96
2022/10/24 11:17:05;;;;;;;20.00;8.77;;;;;;;14.42;100.00;98931.78;4977514;29;20047;-95
2022/10/24 11:39:19;;;;;;;17.23;7.93;;;;;;;14.53;100.00;98924.81;5776403;23;20065;-96
2022/10/24 11:42:37;;;;;;;21.77;6.80;;;;;;;14.79;100.00;98927.94;4939415;29;20106;-96
2022/10/24 11:45:57;;;;;;;14.68;6.22;;;;;;;14.70;100.00;98929.53;4951836;29;20087;-93
2022/10/24 11:49:25;;;;;;;12.23;4.90;;;;;;;14.83;100.00;98925.88;4940673;29;20028;-95
2022/10/24 11:56:16;;;;;;;10.15;4.43;;;;;;;14.95;100.00;98927.50;4923410;29;20058;-95
2022/10/24 11:58:55;;;;;;;10.40;4.25;;;;;;;14.80;100.00;98890.94;4935906;29;20056;-95
2022/10/24 12:02:01;;;;;;;11.68;5.18;;;;;;;15.10;100.00;98922.69;4938725;29;20060;-95
2022/10/24 12:04:55;;;;;;;13.15;6.10;;;;;;;14.95;100.00;98898.50;4903501;29;20059;-96
2022/10/24 12:07:55;;;;;;;13.05;6.97;;;;;;;14.19;100.00;98793.34;4923445;29;20063;-95
2022/10/24 12:10:37;;;;;;;9.65;4.75;;;;;;;15.13;100.00;98898.72;4921899;29;20490;-95
2022/10/24 12:13:24;;;;;;;14.38;8.05;;;;;;;14.81;100.00;98926.84;4936093;29;20171;-95
2022/10/24 12:16:18;;;;;;;11.57;5.72;;;;;;;15.13;100.00;98896.91;4935534;29;20063;-94
2022/10/24 12:18:49;;;;;;;14.73;6.70;;;;;;;14.79;100.00;98862.91;4918315;29;20066;-95
2022/10/24 12:21:25;;;;;;;11.48;5.18;;;;;;;15.16;100.00;98875.56;4937509;29;20412;-95
2022/10/24 12:24:00;;;;;;;10.90;5.63;;;;;;;15.50;100.00;98898.19;4936740;29;20448;-95
2022/10/24 12:26:30;;;;;;;14.23;7.50;;;;;;;15.36;100.00;98879.09;4936732;29;20052;-96
2022/10/24 12:28:59;;;;;;;12.07;5.22;;;;;;;15.51;100.00;98868.19;4936710;29;20059;-95
2022/10/24 12:31:31;;;;;;;11.68;5.20;;;;;;;15.05;100.00;98801.03;4936401;29;20059;-95
2022/10/24 12:34:21;;;;;;;11.45;4.57;;;;;;;15.88;100.00;98918.59;4936032;29;20058;-95
2022/10/24 12:37:08;;;;;;;10.43;4.65;;;;;;;16.06;100.00;98912.63;4936672;29;20060;-94
2022/10/24 12:39:36;;;;;;;9.98;4.70;;;;;;;16.12;100.00;98901.53;4920428;29;20059;-95
2022/10/24 12:42:04;;;;;;;12.60;4.68;;;;;;;16.08;100.00;98866.66;4937087;29;20067;-95
2022/10/24 12:44:31;;;;;;;9.13;3.85;;;;;;;16.02;100.00;98861.91;4920589;29;20048;-96
2022/10/24 12:47:30;;;;;;;12.25;3.63;;;;;;;15.91;100.00;98835.66;4925241;29;20056;-96
2022/10/24 12:50:20;;;;;;;9.55;3.90;;;;;;;16.02;100.00;98906.78;4915832;29;20456;-92
2022/10/24 12:52:49;;;;;;;13.40;6.28;;;;;;;15.70;100.00;98909.63;4938100;29;20550;-95
2022/10/24 12:55:48;;;;;;;9.45;4.38;;;;;;;15.81;100.00;98913.97;4923708;29;20129;-95
2022/10/24 12:58:33;;;;;;;8.55;3.63;;;;;;;16.00;100.00;98910.53;4915626;29;20193;-96
2022/10/24 13:01:02;;;;;;;10.23;4.18;;;;;;;15.88;100.00;98880.78;4924124;29;20056;-96
2022/10/24 13:04:22;;;;;;;10.13;3.65;;;;;;;16.33;100.00;98907.50;4923077;29;20099;-96
2022/10/24 13:07:38;;;;;;;6.63;2.50;;;;;;;16.28;100.00;98871.94;4955033;29;20078;-96
2022/10/24 13:11:02;;;;;;;6.70;2.67;;;;;;;16.37;100.00;98896.66;4941552;29;20034;-95
2022/10/24 13:14:08;;;;;;;7.50;2.67;;;;;;;16.51;100.00;98907.63;4941958;29;20104;-94
2022/10/24 13:17:10;;;;;;;8.93;2.80;;;;;;;16.25;100.00;98902.06;4942293;29;20031;-96